Time;durP1;ratioP1;P1;durP2;ratioP2;P2;SDS_P1;SDS_P2;PMS_P1;PMS_P2;Temp;Humidity;BMP_temperature;BMP_pressure;BME280_temperature;BME280_humidity;BME280_pressure;Samples;Min_cycle;Max_cycle;Signal;HPM_P1;HPM_P2
2023/01/09 00:02:25;;;;;;;6.17;1.83;;;;;;;;;;5049432;28;20045;-62
2023/01/09 00:04:51;;;;;;;7.63;1.77;;;;;;;;;;5049206;28;20503;-62
2023/01/09 00:07:17;;;;;;;8.00;1.70;;;;;;;;;;5049859;28;20118;-64
2023/01/09 00:09:43;;;;;;;13.90;2.33;;;;;;;;;;5049644;28;20045;-64
2023/01/09 00:12:09;;;;;;;9.70;2.50;;;;;;;;;;5048821;28;20053;-65
2023/01/09 00:14:35;;;;;;;5.77;1.40;;;;;;;;;;5049109;28;20049;-65
2023/01/09 00:17:01;;;;;;;4.20;1.20;;;;;;;;;;5047931;28;20056;-65
2023/01/09 00:19:27;;;;;;;7.60;1.30;;;;;;;;;;5047901;28;20106;-65
2023/01/09 00:21:53;;;;;;;4.67;1.40;;;;;;;;;;5060552;28;20399;-65
2023/01/09 00:24:19;;;;;;;2.87;1.07;;;;;;;;;;5065741;28;20118;-65
2023/01/09 00:26:45;;;;;;;2.63;0.90;;;;;;;;;;5047853;28;20060;-65
2023/01/09 00:29:11;;;;;;;4.23;0.70;;;;;;;;;;5048876;28;20507;-65
2023/01/09 00:31:37;;;;;;;2.40;0.80;;;;;;;;;;5047526;28;20495;-65
2023/01/09 00:34:05;;;;;;;2.60;0.73;;;;;;;;;;5048912;28;20049;-65
2023/01/09 00:36:31;;;;;;;4.03;0.80;;;;;;;;;;5048862;28;20602;-65
2023/01/09 00:38:57;;;;;;;5.07;0.70;;;;;;;;;;5049039;28;20102;-65
2023/01/09 00:41:31;;;;;;;3.27;0.93;;;;;;;;;;5047399;28;20453;-65
2023/01/09 00:44:00;;;;;;;2.80;0.90;;;;;;;;;;5048786;28;20091;-65
2023/01/09 00:46:34;;;;;;;4.93;2.00;;;;;;;;;;5030672;28;20056;-64
2023/01/09 00:49:02;;;;;;;4.43;0.93;;;;;;;;;;5048365;28;20477;-65
2023/01/09 00:51:28;;;;;;;2.87;0.80;;;;;;;;;;5048380;28;20097;-65
2023/01/09 00:53:54;;;;;;;1.77;0.83;;;;;;;;;;5068438;28;20380;-65
2023/01/09 00:56:21;;;;;;;4.57;1.03;;;;;;;;;;5067585;28;20063;-65
2023/01/09 00:58:47;;;;;;;3.70;1.10;;;;;;;;;;5068327;28;20055;-65
2023/01/09 01:01:13;;;;;;;3.23;1.13;;;;;;;;;;5068841;28;20051;-64
2023/01/09 01:03:40;;;;;;;5.20;1.70;;;;;;;;;;5067531;28;20040;-64
2023/01/09 01:08:51;;;;;;;6.90;2.30;;;;;;;;;;5066906;28;20536;-64
2023/01/09 01:11:17;;;;;;;6.77;2.93;;;;;;;;;;5068566;28;20040;-65
2023/01/09 01:13:43;;;;;;;5.93;3.13;;;;;;;;;;5068520;28;20048;-64
2023/01/09 01:16:10;;;;;;;8.30;3.00;;;;;;;;;;5068726;28;20599;-64
2023/01/09 01:18:37;;;;;;;7.47;3.40;;;;;;;;;;5068474;28;20491;-64
2023/01/09 01:21:10;;;;;;;6.43;3.07;;;;;;;;;;5067731;28;20048;-64
2023/01/09 01:23:36;;;;;;;8.45;3.30;;;;;;;;;;5068702;28;20617;-65
2023/01/09 01:26:10;;;;;;;9.33;3.70;;;;;;;;;;5049689;28;20053;-64
2023/01/09 01:28:37;;;;;;;6.13;3.20;;;;;;;;;;5048199;28;20424;-64
2023/01/09 01:31:03;;;;;;;6.43;3.43;;;;;;;;;;5047172;28;20186;-64
2023/01/09 01:33:29;;;;;;;7.27;3.10;;;;;;;;;;5048639;28;20045;-64
2023/01/09 01:36:03;;;;;;;6.97;3.90;;;;;;;;;;5052142;28;20049;-64
2023/01/09 01:38:29;;;;;;;;;;;;;;;;;;5051365;28;20131;-64
2023/01/09 01:40:55;;;;;;;6.03;3.20;;;;;;;;;;5052175;28;20011;-64
2023/01/09 01:43:21;;;;;;;7.43;3.17;;;;;;;;;;5050914;28;20147;-65
2023/01/09 01:45:47;;;;;;;9.37;4.10;;;;;;;;;;5058484;28;20056;-65
2023/01/09 01:48:22;;;;;;;10.67;4.60;;;;;;;;;;5071555;28;20059;-64
2023/01/09 01:50:54;;;;;;;7.17;3.03;;;;;;;;;;5072307;28;20139;-64
2023/01/09 01:53:20;;;;;;;8.30;3.43;;;;;;;;;;5071102;28;20445;-64
2023/01/09 01:55:53;;;;;;;8.57;4.20;;;;;;;;;;5071824;28;20097;-64
2023/01/09 01:58:19;;;;;;;9.27;3.50;;;;;;;;;;5072002;28;20049;-64
2023/01/09 02:00:47;;;;;;;10.77;3.97;;;;;;;;;;5072199;28;21313;-64
2023/01/09 02:03:16;;;;;;;9.17;4.27;;;;;;;;;;5068182;28;20041;-64
2023/01/09 02:05:42;;;;;;;7.47;3.43;;;;;;;;;;5072178;28;20425;-64
2023/01/09 02:08:09;;;;;;;7.07;3.30;;;;;;;;;;5072256;28;20050;-64
2023/01/09 02:10:36;;;;;;;13.83;3.70;;;;;;;;;;5071765;28;20040;-64
2023/01/09 02:13:03;;;;;;;9.77;3.70;;;;;;;;;;5069927;28;20403;-65
2023/01/09 02:15:32;;;;;;;7.07;3.00;;;;;;;;;;5071590;28;20080;-64
2023/01/09 02:18:07;;;;;;;8.00;3.70;;;;;;;;;;5070268;28;20109;-64
2023/01/09 02:20:38;;;;;;;7.63;3.53;;;;;;;;;;5071336;28;20502;-62
2023/01/09 02:23:20;;;;;;;6.90;3.40;;;;;;;;;;5069776;28;20044;-64
2023/01/09 02:26:05;;;;;;;8.70;3.70;;;;;;;;;;5071046;28;20044;-64
2023/01/09 02:28:49;;;;;;;11.47;4.17;;;;;;;;;;5071587;28;20395;-64
2023/01/09 02:31:27;;;;;;;12.20;3.50;;;;;;;;;;5071299;28;20040;-64
2023/01/09 02:33:53;;;;;;;9.67;4.03;;;;;;;;;;5056832;28;20147;-64
2023/01/09 02:36:30;;;;;;;9.63;3.87;;;;;;;;;;5051097;28;20186;-65
2023/01/09 02:38:56;;;;;;;7.47;3.90;;;;;;;;;;5051317;28;20048;-64
2023/01/09 02:41:42;;;;;;;11.47;3.83;;;;;;;;;;5051140;28;20041;-64
2023/01/09 02:44:13;;;;;;;14.17;4.07;;;;;;;;;;5065048;28;20044;-64
2023/01/09 02:46:39;;;;;;;10.83;4.80;;;;;;;;;;5070201;28;20544;-64
2023/01/09 02:49:05;;;;;;;13.57;4.80;;;;;;;;;;5068905;28;20055;-64
2023/01/09 02:51:48;;;;;;;10.33;3.87;;;;;;;;;;5051108;28;20045;-64
2023/01/09 02:54:14;;;;;;;15.82;4.60;;;;;;;;;;5065936;28;20607;-64
2023/01/09 02:56:55;;;;;;;10.97;4.40;;;;;;;;;;5070271;28;20074;-64
2023/01/09 02:59:21;;;;;;;10.23;4.00;;;;;;;;;;5071263;28;20040;-65
2023/01/09 03:01:48;;;;;;;12.77;5.00;;;;;;;;;;5070724;28;20045;-64
2023/01/09 03:04:14;;;;;;;13.97;5.17;;;;;;;;;;5070259;28;20392;-64
2023/01/09 03:06:48;;;;;;;16.80;4.43;;;;;;;;;;5055646;28;20491;-64
2023/01/09 03:09:21;;;;;;;14.03;4.87;;;;;;;;;;5050297;28;20037;-64
2023/01/09 03:11:50;;;;;;;13.52;5.47;;;;;;;;;;5050698;28;20128;-64
2023/01/09 03:14:19;;;;;;;13.93;5.80;;;;;;;;;;5064683;28;20078;-64
2023/01/09 03:16:46;;;;;;;14.23;6.93;;;;;;;;;;5057030;28;20526;-64
2023/01/09 03:19:15;;;;;;;13.13;6.00;;;;;;;;;;5050603;28;20049;-64
2023/01/09 03:21:42;;;;;;;12.13;5.53;;;;;;;;;;5049599;28;20489;-65
2023/01/09 03:24:08;;;;;;;9.43;5.80;;;;;;;;;;5063755;28;20052;-64
2023/01/09 03:26:34;;;;;;;10.93;6.50;;;;;;;;;;5070277;28;20044;-65
2023/01/09 03:29:00;;;;;;;15.50;6.93;;;;;;;;;;5069953;28;20540;-64
2023/01/09 03:31:27;;;;;;;16.27;6.80;;;;;;;;;;5070091;28;20223;-64
2023/01/09 03:33:53;;;;;;;21.63;8.10;;;;;;;;;;5069273;28;20048;-64
2023/01/09 03:36:20;;;;;;;15.20;7.77;;;;;;;;;;5069614;28;20055;-64
2023/01/09 03:38:46;;;;;;;15.93;7.50;;;;;;;;;;5069925;28;20086;-64
2023/01/09 03:41:12;;;;;;;22.80;8.77;;;;;;;;;;5057458;28;20052;-64
2023/01/09 03:43:38;;;;;;;18.80;7.73;;;;;;;;;;5049023;28;20049;-65
2023/01/09 03:46:04;;;;;;;20.57;8.93;;;;;;;;;;5049746;28;20392;-65
2023/01/09 03:48:30;;;;;;;20.97;10.00;;;;;;;;;;5048286;28;20041;-64
2023/01/09 03:50:57;;;;;;;31.37;11.20;;;;;;;;;;5049931;28;20049;-64
2023/01/09 03:53:24;;;;;;;26.63;11.10;;;;;;;;;;5061352;28;20502;-64
2023/01/09 03:55:51;;;;;;;26.83;10.87;;;;;;;;;;5067621;28;20045;-64
2023/01/09 03:58:17;;;;;;;22.30;10.90;;;;;;;;;;5068433;28;20040;-64
2023/01/09 04:00:51;;;;;;;20.20;11.60;;;;;;;;;;5069257;28;20044;-64
2023/01/09 04:03:18;;;;;;;23.50;12.32;;;;;;;;;;5057335;28;20068;-64
2023/01/09 04:05:45;;;;;;;30.43;14.30;;;;;;;;;;5048510;28;20057;-64
2023/01/09 04:08:11;;;;;;;30.67;14.17;;;;;;;;;;5049516;28;20052;-65
2023/01/09 04:10:37;;;;;;;38.10;15.87;;;;;;;;;;5049452;28;20182;-64
2023/01/09 04:13:03;;;;;;;36.03;15.50;;;;;;;;;;5056926;28;20063;-64
2023/01/09 04:15:29;;;;;;;35.10;16.30;;;;;;;;;;5068408;28;20057;-64
2023/01/09 04:17:56;;;;;;;30.83;16.73;;;;;;;;;;5068825;28;20078;-64
2023/01/09 04:20:22;;;;;;;37.90;17.03;;;;;;;;;;5069336;28;20045;-64
2023/01/09 04:22:48;;;;;;;42.37;18.23;;;;;;;;;;5061438;28;20056;-64
2023/01/09 04:25:14;;;;;;;34.27;17.97;;;;;;;;;;5047955;28;20128;-64
2023/01/09 04:27:40;;;;;;;43.23;20.97;;;;;;;;;;5049104;28;20104;-64
2023/01/09 04:30:06;;;;;;;39.13;19.90;;;;;;;;;;5049112;28;20463;-64
2023/01/09 04:32:32;;;;;;;44.07;19.57;;;;;;;;;;5053377;28;20044;-65
2023/01/09 04:34:58;;;;;;;51.90;21.67;;;;;;;;;;5068666;28;20540;-64
2023/01/09 04:37:24;;;;;;;44.10;20.30;;;;;;;;;;5069121;28;20048;-64
2023/01/09 04:39:53;;;;;;;42.57;20.97;;;;;;;;;;5065762;28;20145;-64
2023/01/09 04:42:19;;;;;;;45.97;21.43;;;;;;;;;;5048890;28;20052;-65
2023/01/09 04:44:45;;;;;;;57.80;22.77;;;;;;;;;;5048288;28;20483;-64
2023/01/09 04:47:12;;;;;;;41.83;21.43;;;;;;;;;;5048937;28;20563;-64
2023/01/09 04:49:38;;;;;;;50.20;23.37;;;;;;;;;;5048817;28;20045;-64
2023/01/09 04:52:05;;;;;;;49.97;23.33;;;;;;;;;;5048725;28;20111;-64
2023/01/09 04:54:31;;;;;;;55.23;24.07;;;;;;;;;;5048787;28;20049;-64
2023/01/09 04:56:57;;;;;;;57.53;23.60;;;;;;;;;;5048701;28;20110;-65
2023/01/09 04:59:23;;;;;;;46.57;23.07;;;;;;;;;;5048836;28;20055;-64
2023/01/09 05:01:51;;;;;;;39.80;18.57;;;;;;;;;;5048710;28;20091;-64
2023/01/09 05:04:17;;;;;;;50.20;21.50;;;;;;;;;;5047676;28;20103;-65
2023/01/09 05:06:43;;;;;;;45.87;21.47;;;;;;;;;;5049615;28;20053;-64
2023/01/09 05:09:09;;;;;;;45.13;19.27;;;;;;;;;;5052916;28;20043;-64
2023/01/09 05:11:35;;;;;;;46.83;20.53;;;;;;;;;;5051637;28;20060;-64
2023/01/09 05:14:01;;;;;;;45.70;21.10;;;;;;;;;;5052244;28;20053;-65
2023/01/09 05:16:27;;;;;;;38.03;19.57;;;;;;;;;;5052397;28;20052;-65
2023/01/09 05:18:55;;;;;;;42.87;21.10;;;;;;;;;;5052836;28;20048;-64
2023/01/09 05:21:22;;;;;;;41.83;20.07;;;;;;;;;;5052627;28;20166;-64
2023/01/09 05:23:48;;;;;;;55.73;21.77;;;;;;;;;;5052028;28;20172;-64
2023/01/09 05:26:14;;;;;;;49.00;20.77;;;;;;;;;;5052111;28;20045;-64
2023/01/09 05:28:41;;;;;;;39.63;19.47;;;;;;;;;;5050870;28;20048;-65
2023/01/09 05:31:07;;;;;;;45.40;20.00;;;;;;;;;;5052192;28;20057;-65
2023/01/09 05:33:33;;;;;;;45.97;20.17;;;;;;;;;;5050961;28;20048;-64
2023/01/09 05:35:59;;;;;;;44.63;20.13;;;;;;;;;;5052391;28;20060;-64
2023/01/09 05:38:25;;;;;;;39.47;19.23;;;;;;;;;;5052284;28;20048;-65
2023/01/09 05:40:51;;;;;;;37.87;18.90;;;;;;;;;;5052185;28;20037;-65
2023/01/09 05:43:17;;;;;;;34.90;18.60;;;;;;;;;;5051350;28;20454;-65
2023/01/09 05:45:43;;;;;;;38.93;18.00;;;;;;;;;;5051854;28;20507;-64
2023/01/09 05:48:09;;;;;;;42.20;18.93;;;;;;;;;;5051226;28;20045;-65
2023/01/09 05:50:35;;;;;;;35.70;17.97;;;;;;;;;;5050643;28;20045;-64
2023/01/09 05:53:01;;;;;;;35.23;17.17;;;;;;;;;;5054482;28;20548;-64
2023/01/09 05:55:27;;;;;;;29.30;16.43;;;;;;;;;;5069903;28;20048;-64
2023/01/09 05:57:54;;;;;;;29.43;16.13;;;;;;;;;;5069928;28;20060;-65
2023/01/09 06:00:20;;;;;;;32.17;15.67;;;;;;;;;;5069897;28;20052;-65
2023/01/09 06:02:46;;;;;;;28.23;15.63;;;;;;;;;;5064895;28;20045;-64
2023/01/09 06:05:12;;;;;;;30.47;14.63;;;;;;;;;;5050091;28;20392;-64
2023/01/09 06:07:41;;;;;;;29.00;14.53;;;;;;;;;;5051853;28;20049;-65
2023/01/09 06:10:08;;;;;;;23.80;14.10;;;;;;;;;;5051274;28;20053;-64
2023/01/09 06:12:34;;;;;;;29.87;14.23;;;;;;;;;;5049855;28;20124;-64
2023/01/09 06:15:00;;;;;;;24.50;13.00;;;;;;;;;;5069750;28;20117;-65
2023/01/09 06:17:26;;;;;;;20.87;11.83;;;;;;;;;;5071600;28;20053;-65
2023/01/09 06:19:52;;;;;;;23.23;12.17;;;;;;;;;;5070641;28;20499;-65
2023/01/09 06:22:18;;;;;;;26.50;12.83;;;;;;;;;;5071133;28;20052;-65
2023/01/09 06:24:44;;;;;;;25.13;12.47;;;;;;;;;;5052180;28;20107;-65
2023/01/09 06:27:11;;;;;;;23.93;11.83;;;;;;;;;;5051293;28;20045;-65
2023/01/09 06:29:38;;;;;;;19.07;11.13;;;;;;;;;;5054249;28;20125;-65
2023/01/09 06:32:04;;;;;;;24.57;12.73;;;;;;;;;;5051175;28;20040;-65
2023/01/09 06:34:30;;;;;;;27.23;11.47;;;;;;;;;;5048749;28;20041;-65
2023/01/09 06:36:56;;;;;;;18.67;11.00;;;;;;;;;;5051071;28;20056;-65
2023/01/09 06:39:22;;;;;;;26.27;11.40;;;;;;;;;;5051144;28;20049;-65
2023/01/09 06:41:48;;;;;;;27.27;13.50;;;;;;;;;;5049791;28;20442;-65
2023/01/09 06:44:14;;;;;;;20.50;10.63;;;;;;;;;;5063883;28;20057;-65
2023/01/09 06:46:40;;;;;;;17.03;9.70;;;;;;;;;;5070678;28;20422;-65
2023/01/09 06:49:07;;;;;;;22.10;9.60;;;;;;;;;;5070985;28;20056;-65
2023/01/09 06:51:34;;;;;;;24.57;11.03;;;;;;;;;;5071051;28;20045;-65
2023/01/09 06:54:00;;;;;;;23.80;11.20;;;;;;;;;;5058775;28;20052;-65
2023/01/09 06:56:26;;;;;;;24.63;10.77;;;;;;;;;;5050658;28;20045;-65
2023/01/09 06:58:52;;;;;;;21.73;8.37;;;;;;;;;;5051078;28;20423;-64
2023/01/09 07:01:18;;;;;;;27.37;11.40;;;;;;;;;;5050258;28;20045;-65
2023/01/09 07:03:44;;;;;;;29.03;11.97;;;;;;;;;;5051359;28;20049;-65
2023/01/09 07:06:11;;;;;;;20.30;8.93;;;;;;;;;;5049199;28;20110;-64
2023/01/09 07:08:37;;;;;;;20.93;9.33;;;;;;;;;;5050648;28;20052;-65
2023/01/09 07:11:03;;;;;;;20.90;8.57;;;;;;;;;;5049603;28;20053;-64
2023/01/09 07:13:29;;;;;;;18.40;8.77;;;;;;;;;;5051055;28;20495;-65
2023/01/09 07:15:55;;;;;;;21.97;9.37;;;;;;;;;;5049959;28;20045;-65
2023/01/09 07:18:21;;;;;;;18.30;8.70;;;;;;;;;;5050479;28;20049;-65
2023/01/09 07:20:48;;;;;;;14.87;7.90;;;;;;;;;;5050362;28;20094;-65
2023/01/09 07:23:14;;;;;;;18.77;8.53;;;;;;;;;;5051574;28;20041;-65
2023/01/09 07:25:41;;;;;;;17.77;8.10;;;;;;;;;;5049066;28;20095;-66
2023/01/09 07:28:07;;;;;;;16.43;7.70;;;;;;;;;;5050481;28;20045;-66
2023/01/09 07:30:33;;;;;;;14.40;7.43;;;;;;;;;;5051986;28;20048;-66
2023/01/09 07:32:59;;;;;;;17.87;7.13;;;;;;;;;;5056233;28;20507;-66
2023/01/09 07:35:25;;;;;;;16.03;8.17;;;;;;;;;;5069989;28;20428;-66
2023/01/09 07:37:51;;;;;;;18.27;7.90;;;;;;;;;;5069531;28;20048;-66
2023/01/09 07:40:17;;;;;;;15.83;7.20;;;;;;;;;;5069722;28;20040;-65
2023/01/09 07:42:44;;;;;;;17.40;6.90;;;;;;;;;;5065811;28;20045;-66
2023/01/09 07:45:10;;;;;;;18.10;8.13;;;;;;;;;;5049337;28;20049;-66
2023/01/09 07:47:36;;;;;;;19.03;7.10;;;;;;;;;;5049852;28;20060;-66
2023/01/09 07:50:02;;;;;;;17.77;6.93;;;;;;;;;;5049679;28;20045;-66
2023/01/09 07:52:28;;;;;;;14.03;6.27;;;;;;;;;;5047987;28;20487;-66
2023/01/09 07:54:54;;;;;;;13.87;6.07;;;;;;;;;;5053878;28;20440;-66
2023/01/09 07:57:20;;;;;;;14.20;6.37;;;;;;;;;;5056074;28;20040;-66
2023/01/09 07:59:46;;;;;;;14.07;6.53;;;;;;;;;;5033214;28;20041;-66
2023/01/09 08:02:12;;;;;;;17.70;7.40;;;;;;;;;;5049567;28;20045;-67
2023/01/09 08:04:38;;;;;;;21.43;7.87;;;;;;;;;;5048404;28;20049;-66
2023/01/09 08:07:04;;;;;;;17.90;7.00;;;;;;;;;;5053161;28;20506;-66
2023/01/09 08:09:30;;;;;;;16.40;6.20;;;;;;;;;;5055408;28;20047;-66
2023/01/09 08:11:57;;;;;;;18.37;7.07;;;;;;;;;;5066749;28;20410;-66
2023/01/09 08:14:23;;;;;;;23.60;7.53;;;;;;;;;;5067969;28;20493;-66
2023/01/09 08:16:49;;;;;;;16.30;6.67;;;;;;;;;;5067851;28;20051;-67
2023/01/09 08:19:15;;;;;;;16.63;6.63;;;;;;;;;;5062016;28;20041;-66
2023/01/09 08:21:41;;;;;;;26.27;8.17;;;;;;;;;;5067046;28;20056;-67
2023/01/09 08:24:07;;;;;;;16.20;6.20;;;;;;;;;;5068686;28;20422;-66
2023/01/09 08:26:33;;;;;;;21.23;7.03;;;;;;;;;;5054543;28;20049;-66
2023/01/09 08:28:59;;;;;;;19.40;7.50;;;;;;;;;;5051883;28;20110;-67
2023/01/09 08:31:25;;;;;;;20.87;8.07;;;;;;;;;;5069271;28;20048;-67
2023/01/09 08:33:51;;;;;;;20.00;7.63;;;;;;;;;;5066462;28;20052;-67
2023/01/09 08:36:17;;;;;;;24.53;8.73;;;;;;;;;;5066310;28;20495;-68
2023/01/09 08:38:43;;;;;;;14.73;7.50;;;;;;;;;;5062175;28;20560;-66
2023/01/09 08:49:24;;;;;;;18.70;7.07;;;;;;;;;;5066013;28;20048;-65
2023/01/09 08:51:50;;;;;;;22.53;8.37;;;;;;;;;;5066590;28;20511;-66
2023/01/09 08:54:16;;;;;;;15.37;7.20;;;;;;;;;;5055902;28;20407;-66
2023/01/09 08:56:42;;;;;;;24.87;8.10;;;;;;;;;;5062995;28;20045;-66
2023/01/09 08:59:09;;;;;;;18.97;7.40;;;;;;;;;;5053675;28;20055;-66
2023/01/09 09:01:35;;;;;;;20.83;7.40;;;;;;;;;;5048297;28;20040;-67
2023/01/09 09:04:04;;;;;;;15.97;6.70;;;;;;;;;;5066085;28;20052;-66
2023/01/09 09:06:30;;;;;;;23.27;7.37;;;;;;;;;;5067419;28;20064;-67
2023/01/09 09:08:56;;;;;;;18.20;6.10;;;;;;;;;;5068077;28;20052;-66
2023/01/09 09:11:22;;;;;;;15.20;5.60;;;;;;;;;;5066027;28;20052;-66
2023/01/09 09:13:48;;;;;;;20.63;6.70;;;;;;;;;;5067323;28;20509;-66
2023/01/09 09:16:14;;;;;;;16.13;6.50;;;;;;;;;;5066289;28;20072;-66
2023/01/09 09:18:40;;;;;;;18.50;6.87;;;;;;;;;;5067547;28;20052;-66
2023/01/09 09:21:06;;;;;;;18.37;7.17;;;;;;;;;;5065672;28;20185;-66
2023/01/09 09:23:32;;;;;;;17.17;5.97;;;;;;;;;;5062391;28;20049;-66
2023/01/09 09:25:58;;;;;;;13.27;6.50;;;;;;;;;;5048700;28;20104;-67
2023/01/09 09:28:24;;;;;;;18.93;7.37;;;;;;;;;;5047135;28;20056;-66
2023/01/09 09:30:50;;;;;;;15.27;6.77;;;;;;;;;;5047269;28;20493;-66
2023/01/09 09:33:16;;;;;;;15.23;6.27;;;;;;;;;;5046734;28;20052;-67
2023/01/09 09:35:42;;;;;;;14.10;5.70;;;;;;;;;;5046896;28;20048;-67
2023/01/09 09:38:10;;;;;;;13.83;6.17;;;;;;;;;;5046173;28;20053;-66
2023/01/09 09:40:51;;;;;;;17.23;6.33;;;;;;;;;;5044908;28;20095;-66
2023/01/09 09:46:10;;;;;;;13.67;6.00;;;;;;;;;;5046851;28;20065;-66
2023/01/09 09:48:47;;;;;;;17.07;6.60;;;;;;;;;;5046695;28;20044;-66
2023/01/09 09:51:16;;;;;;;19.53;6.67;;;;;;;;;;5047531;28;20495;-66
2023/01/09 09:53:45;;;;;;;12.37;5.67;;;;;;;;;;5046060;28;20064;-66
2023/01/09 09:56:13;;;;;;;15.73;5.80;;;;;;;;;;5050940;28;20049;-66
2023/01/09 09:58:58;;;;;;;13.57;5.43;;;;;;;;;;5050856;28;20047;-66
2023/01/09 10:01:27;;;;;;;16.67;5.57;;;;;;;;;;5050226;28;20410;-67
2023/01/09 10:03:54;;;;;;;19.33;6.27;;;;;;;;;;5050654;28;20045;-66
2023/01/09 10:06:31;;;;;;;15.83;6.23;;;;;;;;;;5050963;28;20138;-66
2023/01/09 10:09:15;;;;;;;15.73;6.17;;;;;;;;;;5050175;28;20555;-66
2023/01/09 10:11:55;;;;;;;15.27;6.17;;;;;;;;;;5050682;28;20084;-66
2023/01/09 10:14:22;;;;;;;16.33;7.53;;;;;;;;;;5050678;28;20513;-66
2023/01/09 10:17:02;;;;;;;14.30;6.13;;;;;;;;;;5050860;28;20049;-67
2023/01/09 10:19:31;;;;;;;13.90;5.93;;;;;;;;;;5049140;28;20049;-66
2023/01/09 10:22:10;;;;;;;16.63;6.00;;;;;;;;;;5032070;28;20048;-66
2023/01/09 10:24:39;;;;;;;15.30;6.73;;;;;;;;;;5049296;28;20102;-67
2023/01/09 10:27:15;;;;;;;19.83;7.20;;;;;;;;;;5050010;28;20053;-66
2023/01/09 10:29:47;;;;;;;13.63;7.00;;;;;;;;;;5050402;28;20045;-67
2023/01/09 10:32:16;;;;;;;21.00;7.43;;;;;;;;;;5050340;28;20053;-67
2023/01/09 10:34:42;;;;;;;15.23;7.27;;;;;;;;;;5050157;28;20064;-67
2023/01/09 10:37:10;;;;;;;18.60;8.00;;;;;;;;;;5048849;28;20566;-66
2023/01/09 10:39:42;;;;;;;17.57;8.00;;;;;;;;;;5050196;28;20165;-67
2023/01/09 10:42:10;;;;;;;23.70;10.70;;;;;;;;;;5050240;28;20458;-67
2023/01/09 10:44:38;;;;;;;18.27;7.93;;;;;;;;;;5050195;28;20053;-66
2023/01/09 10:47:24;;;;;;;12.47;7.20;;;;;;;;;;5049369;28;20442;-66
2023/01/09 10:49:51;;;;;;;21.07;8.90;;;;;;;;;;5048404;28;20061;-67
2023/01/09 10:52:19;;;;;;;15.87;8.40;;;;;;;;;;5048802;28;20537;-66
2023/01/09 10:55:03;;;;;;;19.37;9.10;;;;;;;;;;5049454;28;20053;-66
2023/01/09 10:57:40;;;;;;;16.73;8.82;;;;;;;;;;5049748;28;20044;-64
2023/01/09 11:00:07;;;;;;;18.30;8.30;;;;;;;;;;5048828;28;20522;-64
2023/01/09 11:02:34;;;;;;;23.03;9.27;;;;;;;;;;5048500;28;20080;-64
2023/01/09 11:05:01;;;;;;;22.77;10.00;;;;;;;;;;5049876;28;20045;-64
2023/01/09 11:07:29;;;;;;;18.70;9.63;;;;;;;;;;5048045;28;20136;-65
2023/01/09 11:10:02;;;;;;;19.97;8.73;;;;;;;;;;5049587;28;20102;-64
2023/01/09 11:12:29;;;;;;;15.68;9.50;;;;;;;;;;5049813;28;20095;-65
2023/01/09 11:14:56;;;;;;;20.10;10.03;;;;;;;;;;5049410;28;20053;-65
2023/01/09 11:17:25;;;;;;;22.67;11.10;;;;;;;;;;5049118;28;20044;-65
2023/01/09 11:20:02;;;;;;;26.57;12.23;;;;;;;;;;5048294;28;20167;-64
2023/01/09 11:22:28;;;;;;;23.37;10.23;;;;;;;;;;5049352;28;20049;-64
2023/01/09 11:25:05;;;;;;;27.73;11.20;;;;;;;;;;5048876;28;20419;-63
2023/01/09 11:27:31;;;;;;;22.00;11.03;;;;;;;;;;5049025;28;20041;-64
2023/01/09 11:30:05;;;;;;;27.87;11.83;;;;;;;;;;5049183;28;20049;-64
2023/01/09 11:32:31;;;;;;;24.93;11.83;;;;;;;;;;5048359;28;20041;-64
2023/01/09 11:34:57;;;;;;;21.17;11.27;;;;;;;;;;5047671;28;20053;-65
2023/01/09 11:37:29;;;;;;;36.13;14.20;;;;;;;;;;5048082;28;20055;-64
2023/01/09 11:39:55;;;;;;;25.00;12.10;;;;;;;;;;5049074;28;20041;-64
2023/01/09 11:42:50;;;;;;;32.67;15.00;;;;;;;;;;5048981;28;20056;-64
2023/01/09 11:45:20;;;;;;;31.83;13.77;;;;;;;;;;5049451;28;20048;-64
2023/01/09 11:47:46;;;;;;;33.70;13.20;;;;;;;;;;5063862;28;20097;-64
2023/01/09 11:50:21;;;;;;;37.40;15.80;;;;;;;;;;5067663;28;20178;-64
2023/01/09 11:53:06;;;;;;;30.67;13.97;;;;;;;;;;5067639;28;20048;-64
2023/01/09 11:55:32;;;;;;;36.63;15.70;;;;;;;;;;5065780;28;20052;-64
2023/01/09 11:57:58;;;;;;;31.63;13.57;;;;;;;;;;5068747;28;20422;-64
2023/01/09 12:00:25;;;;;;;27.77;14.17;;;;;;;;;;5068061;28;20044;-64
2023/01/09 12:03:10;;;;;;;21.90;14.17;;;;;;;;;;5068890;28;20140;-65
2023/01/09 12:05:48;;;;;;;30.60;14.50;;;;;;;;;;5067103;28;20051;-64
2023/01/09 12:08:24;;;;;;;23.43;13.33;;;;;;;;;;5066670;28;20564;-64
2023/01/09 12:10:50;;;;;;;34.10;15.83;;;;;;;;;;5055426;28;20037;-64
2023/01/09 12:13:19;;;;;;;23.77;14.03;;;;;;;;;;5056410;28;20461;-64
2023/01/09 12:15:54;;;;;;;27.10;13.87;;;;;;;;;;5066742;28;20113;-64
2023/01/09 12:18:30;;;;;;;20.27;12.30;;;;;;;;;;5066211;28;20063;-64
2023/01/09 12:21:05;;;;;;;20.87;13.37;;;;;;;;;;5066661;28;20052;-65
2023/01/09 12:23:42;;;;;;;31.33;15.67;;;;;;;;;;5067452;28;20131;-64
2023/01/09 12:26:20;;;;;;;29.10;15.10;;;;;;;;;;5068243;28;20082;-64
2023/01/09 12:28:49;;;;;;;25.63;14.67;;;;;;;;;;5054432;28;20045;-64
2023/01/09 12:31:18;;;;;;;24.97;14.10;;;;;;;;;;5058588;28;20044;-64
2023/01/09 12:33:54;;;;;;;30.07;14.87;;;;;;;;;;5066420;28;20048;-64
2023/01/09 12:36:29;;;;;;;26.93;14.27;;;;;;;;;;5064819;28;20107;-64
2023/01/09 12:39:12;;;;;;;33.87;15.80;;;;;;;;;;5058609;28;20049;-64
2023/01/09 12:41:56;;;;;;;27.67;15.23;;;;;;;;;;5066225;28;20499;-64
2023/01/09 12:44:25;;;;;;;23.67;13.33;;;;;;;;;;5067075;28;20051;-64
2023/01/09 12:47:05;;;;;;;22.87;11.63;;;;;;;;;;5064263;28;20052;-64
2023/01/09 12:49:34;;;;;;;22.60;12.67;;;;;;;;;;5063320;28;20072;-66
2023/01/09 12:52:22;;;;;;;20.87;12.43;;;;;;;;;;5066770;28;20509;-66
2023/01/09 12:54:51;;;;;;;19.87;11.80;;;;;;;;;;5066420;28;20059;-66
2023/01/09 12:57:42;;;;;;;29.40;13.67;;;;;;;;;;5059406;28;20072;-66
2023/01/09 13:00:13;;;;;;;18.50;11.10;;;;;;;;;;5058243;28;20044;-66
2023/01/09 13:02:52;;;;;;;24.23;11.33;;;;;;;;;;5066031;28;20064;-66
2023/01/09 13:05:18;;;;;;;22.47;11.90;;;;;;;;;;5067568;28;20036;-66
2023/01/09 13:07:47;;;;;;;20.73;9.23;;;;;;;;;;5058492;28;20045;-66
2023/01/09 13:10:19;;;;;;;26.93;12.40;;;;;;;;;;5064095;28;20075;-66
2023/01/09 13:12:47;;;;;;;28.20;12.17;;;;;;;;;;5061323;28;20053;-66
2023/01/09 13:15:16;;;;;;;21.03;10.83;;;;;;;;;;5052389;28;20155;-66
2023/01/09 13:17:45;;;;;;;28.57;12.77;;;;;;;;;;5069767;28;20064;-66
2023/01/09 13:20:20;;;;;;;31.47;12.93;;;;;;;;;;5052884;28;20057;-64
2023/01/09 13:22:49;;;;;;;28.10;11.00;;;;;;;;;;5063124;28;20095;-64
2023/01/09 13:25:18;;;;;;;24.80;10.37;;;;;;;;;;5061196;28;20060;-64
2023/01/09 13:27:48;;;;;;;23.10;8.63;;;;;;;;;;5055131;28;20047;-64
2023/01/09 13:30:20;;;;;;;17.87;8.00;;;;;;;;;;5069894;28;20556;-64
2023/01/09 13:32:49;;;;;;;17.87;7.63;;;;;;;;;;5071823;28;20094;-64
2023/01/09 13:35:15;;;;;;;16.47;7.80;;;;;;;;;;5070580;28;20064;-64
2023/01/09 13:37:42;;;;;;;22.77;7.57;;;;;;;;;;5070069;28;20045;-64
2023/01/09 13:40:20;;;;;;;16.83;6.47;;;;;;;;;;5069858;28;20387;-64
2023/01/09 13:42:57;;;;;;;24.67;6.70;;;;;;;;;;5061016;28;20053;-64
2023/01/09 13:45:24;;;;;;;17.20;5.23;;;;;;;;;;5070832;28;20144;-64
2023/01/09 13:48:08;;;;;;;13.43;4.57;;;;;;;;;;5069104;28;20072;-64
2023/01/09 13:50:35;;;;;;;23.37;6.43;;;;;;;;;;5069088;28;20325;-64
2023/01/09 13:53:19;;;;;;;19.80;5.43;;;;;;;;;;5069680;28;20051;-63
2023/01/09 13:55:58;;;;;;;16.10;4.60;;;;;;;;;;5063014;28;20419;-64
2023/01/09 13:58:49;;;;;;;23.80;5.10;;;;;;;;;;5051736;28;20048;-63
2023/01/09 14:01:34;;;;;;;18.50;5.30;;;;;;;;;;5057762;28;20045;-63
2023/01/09 14:04:10;;;;;;;15.40;4.97;;;;;;;;;;5059842;28;20060;-64
2023/01/09 14:06:36;;;;;;;13.13;4.63;;;;;;;;;;5070934;28;20413;-64
2023/01/09 14:09:11;;;;;;;20.23;4.00;;;;;;;;;;5071478;28;20058;-63
2023/01/09 14:11:37;;;;;;;13.43;3.97;;;;;;;;;;5070536;28;20052;-63
2023/01/09 14:14:04;;;;;;;18.33;3.50;;;;;;;;;;5059523;28;20135;-63
2023/01/09 14:16:31;;;;;;;14.83;3.90;;;;;;;;;;5051592;28;20538;-63
2023/01/09 14:19:05;;;;;;;18.00;4.33;;;;;;;;;;5054327;28;20051;-64
2023/01/09 14:21:52;;;;;;;25.13;3.90;;;;;;;;;;5069245;28;20509;-64
2023/01/09 14:24:30;;;;;;;18.60;3.30;;;;;;;;;;5051135;28;20041;-65
2023/01/09 14:26:57;;;;;;;14.97;3.00;;;;;;;;;;5068480;28;20048;-64
2023/01/09 14:29:35;;;;;;;17.83;3.43;;;;;;;;;;5069401;28;20055;-64
2023/01/09 14:32:20;;;;;;;16.77;3.50;;;;;;;;;;5068831;28;20052;-64
2023/01/09 14:34:48;;;;;;;20.10;3.10;;;;;;;;;;5050050;28;20094;-67
2023/01/09 14:37:14;;;;;;;19.63;3.93;;;;;;;;;;5060701;28;20052;-64
2023/01/09 14:39:43;;;;;;;24.13;3.53;;;;;;;;;;5048484;28;20041;-64
2023/01/09 14:42:14;;;;;;;13.33;3.17;;;;;;;;;;5062115;28;20044;-64
2023/01/09 14:44:57;;;;;;;11.50;3.13;;;;;;;;;;5067892;28;20123;-64
2023/01/09 14:47:38;;;;;;;19.13;4.10;;;;;;;;;;5057793;28;20041;-64
2023/01/09 14:50:16;;;;;;;20.63;3.20;;;;;;;;;;5065589;28;20041;-64
2023/01/09 14:52:47;;;;;;;17.30;3.67;;;;;;;;;;5067001;28;20088;-64
2023/01/09 14:55:23;;;;;;;13.97;3.90;;;;;;;;;;5070140;28;20044;-63